Time;durP1;ratioP1;P1;durP2;ratioP2;P2;SDS_P1;SDS_P2;PMS_P1;PMS_P2;Temp;Humidity;BMP_temperature;BMP_pressure;BME280_temperature;BME280_humidity;BME280_pressure;Samples;Min_cycle;Max_cycle;Signal;HPM_P1;HPM_P2
2023/07/09 00:01:27;;;;;;;6.30;4.47;;;22.90;53.20;;;;;;5025473;28;20195;-71
2023/07/09 00:03:54;;;;;;;8.80;4.30;;;22.80;52.80;;;;;;5025936;28;20234;-71
2023/07/09 00:06:21;;;;;;;8.07;4.93;;;22.70;53.10;;;;;;5029038;28;20199;-71
2023/07/09 00:08:49;;;;;;;5.65;4.20;;;22.60;53.20;;;;;;5033860;28;20199;-71
2023/07/09 00:11:16;;;;;;;8.77;4.47;;;22.70;53.00;;;;;;5029604;28;20220;-71
2023/07/09 00:13:44;;;;;;;6.90;4.00;;;22.60;53.20;;;;;;5025214;28;20731;-71
2023/07/09 00:16:24;;;;;;;5.72;4.03;;;22.60;55.20;;;;;;5026628;28;20254;-69
2023/07/09 00:18:52;;;;;;;7.70;4.38;;;22.40;54.30;;;;;;5028508;28;20679;-68
2023/07/09 00:21:20;;;;;;;6.85;4.28;;;22.20;54.00;;;;;;5025542;28;20204;-65
2023/07/09 00:23:49;;;;;;;7.57;4.70;;;22.10;55.70;;;;;;5024739;28;20750;-69
2023/07/09 00:26:18;;;;;;;7.97;5.38;;;22.20;56.00;;;;;;5021653;28;20196;-71
2023/07/09 00:28:45;;;;;;;5.97;4.72;;;22.20;55.70;;;;;;5024637;28;20203;-71
2023/07/09 00:31:14;;;;;;;5.80;4.28;;;21.90;55.90;;;;;;5022502;28;20200;-72
2023/07/09 00:33:43;;;;;;;5.63;4.38;;;21.70;83.00;;;;;;5020698;28;20676;-68
2023/07/09 00:36:26;;;;;;;7.43;4.43;;;21.50;58.30;;;;;;5020898;28;20203;-71
2023/07/09 00:38:53;;;;;;;6.05;4.05;;;21.80;59.70;;;;;;5024514;28;20188;-71
2023/07/09 00:41:22;;;;;;;5.63;4.05;;;21.90;59.00;;;;;;5033772;28;20815;-72
2023/07/09 00:43:51;;;;;;;10.57;5.70;;;21.90;59.80;;;;;;5024455;28;20262;-72
2023/07/09 00:46:25;;;;;;;13.00;7.90;;;22.10;61.00;;;;;;5031406;28;20204;-70
2023/07/09 00:48:58;;;;;;;7.75;4.82;;;22.20;60.80;;;;;;5029219;28;20652;-69
2023/07/09 00:51:27;;;;;;;6.75;4.25;;;22.30;60.50;;;;;;5026305;28;20194;-68
2023/07/09 00:54:00;;;;;;;9.05;5.10;;;22.20;61.00;;;;;;5024180;28;20628;-68
2023/07/09 00:56:40;;;;;;;6.63;4.70;;;22.10;60.00;;;;;;5018512;28;20208;-70
2023/07/09 00:59:13;;;;;;;7.72;3.97;;;21.90;61.20;;;;;;5025207;28;20607;-68
2023/07/09 01:01:40;;;;;;;10.85;6.30;;;21.60;61.60;;;;;;5031553;28;20192;-61
2023/07/09 01:04:08;;;;;;;13.75;7.50;;;21.80;62.50;;;;;;5027353;23;20299;-60
2023/07/09 01:06:58;;;;;;;12.40;5.68;;;22.00;63.30;;;;;;5005155;28;20272;-59
2023/07/09 01:09:25;;;;;;;6.88;5.05;;;22.20;88.60;;;;;;5007919;28;20200;-57
2023/07/09 01:11:56;;;;;;;6.63;4.72;;;22.20;63.10;;;;;;5006286;28;20643;-60
2023/07/09 01:14:26;;;;;;;6.82;4.38;;;22.20;64.60;;;;;;5006943;28;20645;-61
2023/07/09 01:16:58;;;;;;;8.73;4.80;;;22.00;63.80;;;;;;5003989;28;20198;-60
2023/07/09 01:19:28;;;;;;;7.03;4.43;;;21.90;65.50;;;;;;5004930;28;20208;-59
2023/07/09 01:22:00;;;;;;;7.00;4.15;;;21.60;66.20;;;;;;5006975;28;20193;-61
2023/07/09 01:24:46;;;;;;;9.57;5.10;;;21.50;66.40;;;;;;5007620;28;20206;-66
2023/07/09 01:27:13;;;;;;;12.40;6.78;;;21.60;68.10;;;;;;5008431;28;20750;-62
2023/07/09 01:29:42;;;;;;;14.50;8.88;;;21.40;68.50;;;;;;5006810;28;20668;-60
2023/07/09 01:32:14;;;;;;;9.65;5.80;;;21.70;68.60;;;;;;5004717;28;20221;-61
2023/07/09 01:34:41;;;;;;;10.23;5.75;;;21.80;68.80;;;;;;4999937;28;20197;-62
2023/07/09 01:37:08;;;;;;;8.45;4.45;;;21.90;68.00;;;;;;4999279;28;20678;-61
2023/07/09 01:39:35;;;;;;;6.70;4.68;;;22.00;68.30;;;;;;5007925;28;20201;-61
2023/07/09 01:42:06;;;;;;;11.32;4.78;;;22.00;68.50;;;;;;5005587;28;20296;-59
2023/07/09 01:44:33;;;;;;;6.65;4.45;;;21.50;68.60;;;;;;5005867;28;20619;-61
2023/07/09 01:47:03;;;;;;;11.05;4.47;;;21.20;71.90;;;;;;5003439;28;20210;-61
2023/07/09 01:49:32;;;;;;;7.70;4.75;;;21.20;70.40;;;;;;5005681;28;20603;-59
2023/07/09 01:52:01;;;;;;;7.20;4.30;;;21.30;72.30;;;;;;5003601;28;20209;-60
2023/07/09 01:54:30;;;;;;;6.55;4.18;;;21.30;73.20;;;;;;5005730;28;20193;-60
2023/07/09 01:57:34;;;;;;;10.35;4.90;;;21.30;72.60;;;;;;5006769;28;20200;-60
2023/07/09 02:00:11;;;;;;;6.20;4.18;;;21.20;74.60;;;;;;4946745;28;20212;-60
